sensor_id;sensor_type;location;lat;lon;timestamp;P1;durP1;ratioP1;P2;durP2;ratioP2
21786;SDS011;11055;50.870;4.316;2023-02-28T00:00:09;7.82;;;5.18;;
21786;SDS011;11055;50.870;4.316;2023-02-28T00:02:37;8.32;;;5.40;;
21786;SDS011;11055;50.870;4.316;2023-02-28T00:05:04;10.93;;;5.60;;
21786;SDS011;11055;50.870;4.316;2023-02-28T00:07:30;12.85;;;6.80;;
21786;SDS011;11055;50.870;4.316;2023-02-28T00:09:56;9.23;;;5.32;;
21786;SDS011;11055;50.870;4.316;2023-02-28T00:12:23;7.32;;;5.30;;
21786;SDS011;11055;50.870;4.316;2023-02-28T00:14:52;7.65;;;4.85;;
21786;SDS011;11055;50.870;4.316;2023-02-28T00:17:18;9.48;;;5.55;;
21786;SDS011;11055;50.870;4.316;2023-02-28T00:19:46;11.75;;;5.90;;
21786;SDS011;11055;50.870;4.316;2023-02-28T00:22:13;8.38;;;4.90;;
21786;SDS011;11055;50.870;4.316;2023-02-28T00:24:40;10.20;;;5.50;;
21786;SDS011;11055;50.870;4.316;2023-02-28T00:27:06;9.43;;;5.35;;
21786;SDS011;11055;50.870;4.316;2023-02-28T00:29:31;7.78;;;5.20;;
21786;SDS011;11055;50.870;4.316;2023-02-28T00:31:57;7.78;;;4.95;;
21786;SDS011;11055;50.870;4.316;2023-02-28T00:34:23;6.47;;;4.68;;
21786;SDS011;11055;50.870;4.316;2023-02-28T00:36:48;7.47;;;4.93;;
21786;SDS011;11055;50.870;4.316;2023-02-28T00:39:14;7.22;;;5.10;;
21786;SDS011;11055;50.870;4.316;2023-02-28T00:41:40;8.05;;;5.05;;
21786;SDS011;11055;50.870;4.316;2023-02-28T00:44:06;8.60;;;5.13;;
21786;SDS011;11055;50.870;4.316;2023-02-28T00:46:32;8.52;;;5.15;;
21786;SDS011;11055;50.870;4.316;2023-02-28T00:48:57;10.18;;;4.88;;
21786;SDS011;11055;50.870;4.316;2023-02-28T00:51:23;8.73;;;5.03;;
21786;SDS011;11055;50.870;4.316;2023-02-28T00:53:49;7.20;;;4.95;;
21786;SDS011;11055;50.870;4.316;2023-02-28T00:56:14;7.65;;;5.22;;
21786;SDS011;11055;50.870;4.316;2023-02-28T00:58:40;6.65;;;4.68;;
21786;SDS011;11055;50.870;4.316;2023-02-28T01:01:06;7.40;;;5.38;;
21786;SDS011;11055;50.870;4.316;2023-02-28T01:03:31;6.68;;;5.50;;
21786;SDS011;11055;50.870;4.316;2023-02-28T01:05:57;10.88;;;6.22;;
21786;SDS011;11055;50.870;4.316;2023-02-28T01:08:23;9.48;;;5.63;;
21786;SDS011;11055;50.870;4.316;2023-02-28T01:10:48;9.25;;;5.38;;
21786;SDS011;11055;50.870;4.316;2023-02-28T01:13:14;6.22;;;4.90;;
21786;SDS011;11055;50.870;4.316;2023-02-28T01:15:41;8.23;;;5.63;;
21786;SDS011;11055;50.870;4.316;2023-02-28T01:18:14;10.00;;;5.95;;
21786;SDS011;11055;50.870;4.316;2023-02-28T01:20:40;9.20;;;5.60;;
21786;SDS011;11055;50.870;4.316;2023-02-28T01:23:06;11.32;;;5.88;;
21786;SDS011;11055;50.870;4.316;2023-02-28T01:25:33;8.57;;;5.75;;
21786;SDS011;11055;50.870;4.316;2023-02-28T01:28:00;9.30;;;6.00;;
21786;SDS011;11055;50.870;4.316;2023-02-28T01:30:26;8.27;;;5.82;;
21786;SDS011;11055;50.870;4.316;2023-02-28T01:32:52;7.45;;;5.90;;
21786;SDS011;11055;50.870;4.316;2023-02-28T01:35:18;8.50;;;6.50;;
21786;SDS011;11055;50.870;4.316;2023-02-28T01:37:44;8.50;;;6.00;;
21786;SDS011;11055;50.870;4.316;2023-02-28T01:40:10;10.48;;;6.25;;
21786;SDS011;11055;50.870;4.316;2023-02-28T01:42:37;10.27;;;6.32;;
21786;SDS011;11055;50.870;4.316;2023-02-28T01:45:45;11.45;;;6.35;;
21786;SDS011;11055;50.870;4.316;2023-02-28T01:47:52;9.52;;;6.50;;
21786;SDS011;11055;50.870;4.316;2023-02-28T01:50:24;10.95;;;6.97;;
21786;SDS011;11055;50.870;4.316;2023-02-28T01:52:53;10.80;;;6.60;;
21786;SDS011;11055;50.870;4.316;2023-02-28T01:55:24;10.73;;;7.97;;
21786;SDS011;11055;50.870;4.316;2023-02-28T01:57:55;11.35;;;7.05;;
21786;SDS011;11055;50.870;4.316;2023-02-28T02:00:24;9.05;;;6.80;;
21786;SDS011;11055;50.870;4.316;2023-02-28T02:02:54;8.75;;;6.93;;
21786;SDS011;11055;50.870;4.316;2023-02-28T02:05:26;14.23;;;7.90;;
21786;SDS011;11055;50.870;4.316;2023-02-28T02:07:56;10.70;;;7.03;;
21786;SDS011;11055;50.870;4.316;2023-02-28T02:10:31;12.73;;;8.33;;
21786;SDS011;11055;50.870;4.316;2023-02-28T02:19:02;9.00;;;7.25;;
21786;SDS011;11055;50.870;4.316;2023-02-28T02:27:17;20.83;;;8.73;;
21786;SDS011;11055;50.870;4.316;2023-02-28T02:40:38;12.15;;;7.35;;
21786;SDS011;11055;50.870;4.316;2023-02-28T02:43:08;12.18;;;8.10;;
21786;SDS011;11055;50.870;4.316;2023-02-28T02:48:29;18.50;;;9.25;;
21786;SDS011;11055;50.870;4.316;2023-02-28T02:50:58;14.63;;;8.27;;
21786;SDS011;11055;50.870;4.316;2023-02-28T02:53:28;17.35;;;8.95;;
21786;SDS011;11055;50.870;4.316;2023-02-28T02:55:59;13.60;;;8.35;;
21786;SDS011;11055;50.870;4.316;2023-02-28T02:58:31;15.88;;;8.93;;
21786;SDS011;11055;50.870;4.316;2023-02-28T03:01:00;17.40;;;9.70;;
21786;SDS011;11055;50.870;4.316;2023-02-28T03:03:28;21.27;;;10.13;;
21786;SDS011;11055;50.870;4.316;2023-02-28T03:05:59;25.02;;;11.40;;
21786;SDS011;11055;50.870;4.316;2023-02-28T03:08:26;23.42;;;11.50;;
21786;SDS011;11055;50.870;4.316;2023-02-28T03:11:00;15.40;;;9.50;;
21786;SDS011;11055;50.870;4.316;2023-02-28T03:13:36;14.32;;;9.60;;
21786;SDS011;11055;50.870;4.316;2023-02-28T03:21:43;23.48;;;11.63;;
21786;SDS011;11055;50.870;4.316;2023-02-28T03:24:33;10.57;;;8.15;;
21786;SDS011;11055;50.870;4.316;2023-02-28T03:27:17;19.75;;;10.40;;
21786;SDS011;11055;50.870;4.316;2023-02-28T03:30:01;14.85;;;9.13;;
21786;SDS011;11055;50.870;4.316;2023-02-28T03:35:23;14.10;;;8.73;;
21786;SDS011;11055;50.870;4.316;2023-02-28T03:37:55;14.18;;;9.02;;
21786;SDS011;11055;50.870;4.316;2023-02-28T03:40:27;13.18;;;8.90;;
21786;SDS011;11055;50.870;4.316;2023-02-28T03:42:59;15.73;;;9.05;;
21786;SDS011;11055;50.870;4.316;2023-02-28T03:45:37;16.63;;;9.88;;
21786;SDS011;11055;50.870;4.316;2023-02-28T03:48:13;13.13;;;8.95;;
21786;SDS011;11055;50.870;4.316;2023-02-28T03:50:55;12.32;;;9.25;;
21786;SDS011;11055;50.870;4.316;2023-02-28T04:01:36;14.88;;;9.43;;
21786;SDS011;11055;50.870;4.316;2023-02-28T04:04:06;11.68;;;9.10;;
21786;SDS011;11055;50.870;4.316;2023-02-28T04:06:36;13.57;;;9.15;;
21786;SDS011;11055;50.870;4.316;2023-02-28T04:09:03;11.27;;;9.13;;
21786;SDS011;11055;50.870;4.316;2023-02-28T04:11:32;11.68;;;8.93;;
21786;SDS011;11055;50.870;4.316;2023-02-28T04:14:02;15.48;;;9.43;;
21786;SDS011;11055;50.870;4.316;2023-02-28T04:16:29;14.00;;;9.15;;
21786;SDS011;11055;50.870;4.316;2023-02-28T04:18:55;13.77;;;8.57;;
21786;SDS011;11055;50.870;4.316;2023-02-28T04:21:48;10.52;;;8.13;;
21786;SDS011;11055;50.870;4.316;2023-02-28T04:24:21;12.25;;;8.48;;
21786;SDS011;11055;50.870;4.316;2023-02-28T04:26:49;11.23;;;8.60;;
21786;SDS011;11055;50.870;4.316;2023-02-28T04:29:21;12.57;;;8.05;;
21786;SDS011;11055;50.870;4.316;2023-02-28T04:31:47;12.23;;;8.38;;
21786;SDS011;11055;50.870;4.316;2023-02-28T04:34:13;12.63;;;8.20;;
21786;SDS011;11055;50.870;4.316;2023-02-28T04:36:39;12.35;;;8.90;;
21786;SDS011;11055;50.870;4.316;2023-02-28T04:39:05;11.52;;;8.57;;
21786;SDS011;11055;50.870;4.316;2023-02-28T04:41:30;10.65;;;8.23;;
21786;SDS011;11055;50.870;4.316;2023-02-28T04:43:56;10.98;;;8.43;;
21786;SDS011;11055;50.870;4.316;2023-02-28T04:46:22;11.38;;;8.07;;
21786;SDS011;11055;50.870;4.316;2023-02-28T04:48:48;13.98;;;9.25;;
21786;SDS011;11055;50.870;4.316;2023-02-28T04:51:15;11.68;;;8.88;;
21786;SDS011;11055;50.870;4.316;2023-02-28T04:53:42;12.77;;;9.05;;
21786;SDS011;11055;50.870;4.316;2023-02-28T04:56:14;12.50;;;8.68;;
21786;SDS011;11055;50.870;4.316;2023-02-28T04:58:41;13.40;;;8.52;;
21786;SDS011;11055;50.870;4.316;2023-02-28T05:01:18;17.85;;;9.30;;
21786;SDS011;11055;50.870;4.316;2023-02-28T05:03:50;12.70;;;9.48;;
21786;SDS011;11055;50.870;4.316;2023-02-28T05:06:17;10.32;;;8.50;;
21786;SDS011;11055;50.870;4.316;2023-02-28T05:08:43;13.20;;;8.82;;
21786;SDS011;11055;50.870;4.316;2023-02-28T05:11:14;15.05;;;9.35;;
21786;SDS011;11055;50.870;4.316;2023-02-28T05:13:42;12.68;;;8.73;;
21786;SDS011;11055;50.870;4.316;2023-02-28T05:16:08;11.75;;;8.82;;
21786;SDS011;11055;50.870;4.316;2023-02-28T05:18:33;10.98;;;8.40;;
21786;SDS011;11055;50.870;4.316;2023-02-28T05:20:59;12.63;;;8.45;;
21786;SDS011;11055;50.870;4.316;2023-02-28T05:23:27;13.93;;;9.20;;
21786;SDS011;11055;50.870;4.316;2023-02-28T05:25:53;11.93;;;8.60;;
21786;SDS011;11055;50.870;4.316;2023-02-28T05:28:19;13.02;;;8.82;;
21786;SDS011;11055;50.870;4.316;2023-02-28T05:30:45;10.65;;;8.63;;
21786;SDS011;11055;50.870;4.316;2023-02-28T05:33:11;13.57;;;8.63;;
21786;SDS011;11055;50.870;4.316;2023-02-28T05:35:40;11.55;;;9.10;;
21786;SDS011;11055;50.870;4.316;2023-02-28T05:38:09;14.98;;;9.40;;
21786;SDS011;11055;50.870;4.316;2023-02-28T05:40:35;11.98;;;8.40;;
21786;SDS011;11055;50.870;4.316;2023-02-28T05:43:04;14.60;;;8.70;;
21786;SDS011;11055;50.870;4.316;2023-02-28T05:45:29;16.05;;;8.73;;
21786;SDS011;11055;50.870;4.316;2023-02-28T05:47:55;10.85;;;7.95;;
21786;SDS011;11055;50.870;4.316;2023-02-28T05:50:21;14.20;;;8.70;;
21786;SDS011;11055;50.870;4.316;2023-02-28T05:52:50;14.00;;;8.23;;
21786;SDS011;11055;50.870;4.316;2023-02-28T05:55:16;12.68;;;8.45;;
21786;SDS011;11055;50.870;4.316;2023-02-28T05:57:42;12.70;;;8.13;;
21786;SDS011;11055;50.870;4.316;2023-02-28T06:00:08;10.82;;;8.75;;
21786;SDS011;11055;50.870;4.316;2023-02-28T06:02:35;12.52;;;8.48;;
21786;SDS011;11055;50.870;4.316;2023-02-28T06:05:00;10.95;;;8.48;;
21786;SDS011;11055;50.870;4.316;2023-02-28T06:07:26;17.92;;;8.15;;
21786;SDS011;11055;50.870;4.316;2023-02-28T06:09:52;12.10;;;8.07;;
21786;SDS011;11055;50.870;4.316;2023-02-28T06:12:17;12.55;;;8.60;;
21786;SDS011;11055;50.870;4.316;2023-02-28T06:14:43;13.43;;;8.00;;
21786;SDS011;11055;50.870;4.316;2023-02-28T06:17:09;11.55;;;8.35;;
21786;SDS011;11055;50.870;4.316;2023-02-28T06:19:36;15.45;;;8.27;;
21786;SDS011;11055;50.870;4.316;2023-02-28T06:22:03;13.02;;;8.55;;
21786;SDS011;11055;50.870;4.316;2023-02-28T06:24:29;11.68;;;7.85;;
21786;SDS011;11055;50.870;4.316;2023-02-28T06:26:56;19.63;;;8.68;;
21786;SDS011;11055;50.870;4.316;2023-02-28T06:29:23;15.60;;;8.95;;
21786;SDS011;11055;50.870;4.316;2023-02-28T06:31:49;9.93;;;7.72;;
21786;SDS011;11055;50.870;4.316;2023-02-28T06:34:18;14.85;;;8.35;;
21786;SDS011;11055;50.870;4.316;2023-02-28T06:36:43;11.43;;;8.68;;
21786;SDS011;11055;50.870;4.316;2023-02-28T06:39:09;10.60;;;8.05;;
21786;SDS011;11055;50.870;4.316;2023-02-28T06:41:35;11.57;;;8.07;;
21786;SDS011;11055;50.870;4.316;2023-02-28T06:44:12;13.20;;;8.23;;
21786;SDS011;11055;50.870;4.316;2023-02-28T06:46:45;11.45;;;7.95;;
21786;SDS011;11055;50.870;4.316;2023-02-28T06:49:11;9.35;;;8.00;;
21786;SDS011;11055;50.870;4.316;2023-02-28T06:51:38;11.68;;;8.07;;
21786;SDS011;11055;50.870;4.316;2023-02-28T06:54:05;16.15;;;8.95;;
21786;SDS011;11055;50.870;4.316;2023-02-28T06:56:34;12.55;;;8.75;;
21786;SDS011;11055;50.870;4.316;2023-02-28T06:59:00;11.38;;;8.52;;
21786;SDS011;11055;50.870;4.316;2023-02-28T07:01:25;12.57;;;9.43;;
21786;SDS011;11055;50.870;4.316;2023-02-28T07:03:52;9.65;;;8.20;;
21786;SDS011;11055;50.870;4.316;2023-02-28T07:06:19;12.50;;;8.48;;
21786;SDS011;11055;50.870;4.316;2023-02-28T07:08:47;12.63;;;7.80;;
21786;SDS011;11055;50.870;4.316;2023-02-28T07:11:14;14.70;;;8.65;;
21786;SDS011;11055;50.870;4.316;2023-02-28T07:13:39;13.07;;;8.07;;
21786;SDS011;11055;50.870;4.316;2023-02-28T07:16:06;12.40;;;7.60;;
21786;SDS011;11055;50.870;4.316;2023-02-28T07:18:34;11.40;;;7.57;;
21786;SDS011;11055;50.870;4.316;2023-02-28T07:21:04;14.20;;;8.30;;
21786;SDS011;11055;50.870;4.316;2023-02-28T07:23:31;11.85;;;8.45;;
21786;SDS011;11055;50.870;4.316;2023-02-28T07:25:57;11.30;;;8.20;;
21786;SDS011;11055;50.870;4.316;2023-02-28T07:28:23;10.52;;;7.78;;
21786;SDS011;11055;50.870;4.316;2023-02-28T07:30:49;12.05;;;8.50;;
21786;SDS011;11055;50.870;4.316;2023-02-28T07:33:15;15.15;;;8.52;;
21786;SDS011;11055;50.870;4.316;2023-02-28T07:35:41;11.55;;;8.38;;
21786;SDS011;11055;50.870;4.316;2023-02-28T07:38:06;13.68;;;7.63;;
21786;SDS011;11055;50.870;4.316;2023-02-28T07:40:33;11.27;;;7.55;;
21786;SDS011;11055;50.870;4.316;2023-02-28T07:43:00;12.93;;;8.45;;
21786;SDS011;11055;50.870;4.316;2023-02-28T07:45:26;9.27;;;7.68;;
21786;SDS011;11055;50.870;4.316;2023-02-28T07:47:54;16.05;;;8.05;;
21786;SDS011;11055;50.870;4.316;2023-02-28T07:50:20;12.05;;;7.20;;
21786;SDS011;11055;50.870;4.316;2023-02-28T07:52:46;10.38;;;7.18;;
21786;SDS011;11055;50.870;4.316;2023-02-28T07:55:12;10.88;;;7.15;;
21786;SDS011;11055;50.870;4.316;2023-02-28T07:57:38;14.25;;;5.88;;
21786;SDS011;11055;50.870;4.316;2023-02-28T08:00:05;10.55;;;6.72;;
21786;SDS011;11055;50.870;4.316;2023-02-28T08:02:34;9.10;;;6.25;;
21786;SDS011;11055;50.870;4.316;2023-02-28T08:05:00;7.22;;;5.82;;
21786;SDS011;11055;50.870;4.316;2023-02-28T08:07:29;8.63;;;5.30;;
21786;SDS011;11055;50.870;4.316;2023-02-28T08:09:55;8.40;;;5.85;;
21786;SDS011;11055;50.870;4.316;2023-02-28T08:12:24;8.93;;;5.85;;
21786;SDS011;11055;50.870;4.316;2023-02-28T08:14:50;7.80;;;5.57;;
21786;SDS011;11055;50.870;4.316;2023-02-28T08:17:16;4.95;;;3.97;;
21786;SDS011;11055;50.870;4.316;2023-02-28T08:19:42;7.28;;;4.57;;
21786;SDS011;11055;50.870;4.316;2023-02-28T08:22:10;7.50;;;4.45;;
21786;SDS011;11055;50.870;4.316;2023-02-28T08:24:35;7.38;;;4.43;;
21786;SDS011;11055;50.870;4.316;2023-02-28T08:27:01;6.28;;;4.65;;
21786;SDS011;11055;50.870;4.316;2023-02-28T08:29:27;6.82;;;4.30;;
21786;SDS011;11055;50.870;4.316;2023-02-28T08:31:52;4.95;;;3.65;;
21786;SDS011;11055;50.870;4.316;2023-02-28T08:34:18;4.78;;;4.00;;
21786;SDS011;11055;50.870;4.316;2023-02-28T08:36:43;10.90;;;3.88;;
21786;SDS011;11055;50.870;4.316;2023-02-28T08:39:10;6.10;;;3.60;;
21786;SDS011;11055;50.870;4.316;2023-02-28T08:41:37;5.15;;;3.65;;
21786;SDS011;11055;50.870;4.316;2023-02-28T08:44:03;4.82;;;3.60;;
21786;SDS011;11055;50.870;4.316;2023-02-28T08:46:28;5.68;;;3.50;;
21786;SDS011;11055;50.870;4.316;2023-02-28T08:48:55;5.95;;;4.05;;
21786;SDS011;11055;50.870;4.316;2023-02-28T08:51:24;7.70;;;3.67;;
21786;SDS011;11055;50.870;4.316;2023-02-28T08:53:53;6.47;;;3.70;;
21786;SDS011;11055;50.870;4.316;2023-02-28T08:56:24;7.57;;;3.38;;
21786;SDS011;11055;50.870;4.316;2023-02-28T08:58:50;5.70;;;2.97;;
21786;SDS011;11055;50.870;4.316;2023-02-28T09:01:17;4.55;;;2.90;;
21786;SDS011;11055;50.870;4.316;2023-02-28T09:03:45;7.18;;;3.50;;
21786;SDS011;11055;50.870;4.316;2023-02-28T09:06:12;5.90;;;3.40;;
21786;SDS011;11055;50.870;4.316;2023-02-28T09:08:39;5.80;;;3.58;;
21786;SDS011;11055;50.870;4.316;2023-02-28T09:11:05;7.45;;;3.75;;
21786;SDS011;11055;50.870;4.316;2023-02-28T09:13:31;8.15;;;3.72;;
21786;SDS011;11055;50.870;4.316;2023-02-28T09:15:59;4.10;;;3.42;;
21786;SDS011;11055;50.870;4.316;2023-02-28T09:18:27;4.40;;;3.33;;
21786;SDS011;11055;50.870;4.316;2023-02-28T09:20:53;5.13;;;3.17;;
21786;SDS011;11055;50.870;4.316;2023-02-28T09:23:19;5.50;;;3.17;;
21786;SDS011;11055;50.870;4.316;2023-02-28T09:25:53;4.90;;;3.00;;
21786;SDS011;11055;50.870;4.316;2023-02-28T09:28:19;4.47;;;3.05;;
21786;SDS011;11055;50.870;4.316;2023-02-28T09:30:47;3.22;;;2.90;;
21786;SDS011;11055;50.870;4.316;2023-02-28T09:33:14;4.00;;;3.47;;
21786;SDS011;11055;50.870;4.316;2023-02-28T09:35:41;4.72;;;3.13;;
21786;SDS011;11055;50.870;4.316;2023-02-28T09:38:07;5.10;;;3.10;;
21786;SDS011;11055;50.870;4.316;2023-02-28T09:40:39;5.57;;;3.60;;
21786;SDS011;11055;50.870;4.316;2023-02-28T09:43:22;4.88;;;3.08;;
21786;SDS011;11055;50.870;4.316;2023-02-28T09:46:06;4.18;;;2.67;;
21786;SDS011;11055;50.870;4.316;2023-02-28T09:48:40;4.70;;;2.78;;
21786;SDS011;11055;50.870;4.316;2023-02-28T09:51:22;5.90;;;3.00;;
21786;SDS011;11055;50.870;4.316;2023-02-28T09:53:54;3.70;;;2.92;;
21786;SDS011;11055;50.870;4.316;2023-02-28T09:56:21;3.42;;;2.70;;
21786;SDS011;11055;50.870;4.316;2023-02-28T09:58:54;3.70;;;3.30;;
21786;SDS011;11055;50.870;4.316;2023-02-28T10:11:14;3.75;;;2.30;;
21786;SDS011;11055;50.870;4.316;2023-02-28T10:19:02;3.53;;;2.40;;
21786;SDS011;11055;50.870;4.316;2023-02-28T10:29:31;6.75;;;2.95;;
21786;SDS011;11055;50.870;4.316;2023-02-28T10:31:58;3.58;;;2.40;;
21786;SDS011;11055;50.870;4.316;2023-02-28T10:34:27;3.67;;;2.20;;
21786;SDS011;11055;50.870;4.316;2023-02-28T10:36:52;4.43;;;2.20;;
21786;SDS011;11055;50.870;4.316;2023-02-28T10:39:53;5.20;;;2.95;;
21786;SDS011;11055;50.870;4.316;2023-02-28T10:42:28;3.88;;;2.65;;
21786;SDS011;11055;50.870;4.316;2023-02-28T10:45:14;3.92;;;2.50;;
21786;SDS011;11055;50.870;4.316;2023-02-28T10:47:57;2.83;;;2.30;;
21786;SDS011;11055;50.870;4.316;2023-02-28T10:55:35;1.80;;;1.70;;
21786;SDS011;11055;50.870;4.316;2023-02-28T10:58:01;2.38;;;1.90;;
21786;SDS011;11055;50.870;4.316;2023-02-28T11:00:32;2.65;;;1.92;;
21786;SDS011;11055;50.870;4.316;2023-02-28T11:02:59;5.65;;;3.75;;
21786;SDS011;11055;50.870;4.316;2023-02-28T11:05:35;2.65;;;1.67;;
21786;SDS011;11055;50.870;4.316;2023-02-28T11:10:43;2.25;;;2.00;;
21786;SDS011;11055;50.870;4.316;2023-02-28T11:13:19;4.78;;;1.83;;
21786;SDS011;11055;50.870;4.316;2023-02-28T11:15:51;3.03;;;2.00;;
21786;SDS011;11055;50.870;4.316;2023-02-28T11:18:24;2.10;;;1.77;;
21786;SDS011;11055;50.870;4.316;2023-02-28T11:24:12;5.75;;;2.67;;
21786;SDS011;11055;50.870;4.316;2023-02-28T11:26:43;3.03;;;1.83;;
21786;SDS011;11055;50.870;4.316;2023-02-28T11:29:18;3.42;;;2.20;;
21786;SDS011;11055;50.870;4.316;2023-02-28T11:34:36;3.67;;;2.05;;
21786;SDS011;11055;50.870;4.316;2023-02-28T11:37:05;3.97;;;2.40;;
21786;SDS011;11055;50.870;4.316;2023-02-28T11:39:36;3.78;;;2.28;;
21786;SDS011;11055;50.870;4.316;2023-02-28T11:50:03;3.75;;;2.25;;
21786;SDS011;11055;50.870;4.316;2023-02-28T11:52:56;2.47;;;2.05;;
21786;SDS011;11055;50.870;4.316;2023-02-28T12:01:06;2.25;;;1.80;;
21786;SDS011;11055;50.870;4.316;2023-02-28T12:25:24;3.10;;;2.50;;
21786;SDS011;11055;50.870;4.316;2023-02-28T12:28:11;3.88;;;2.65;;
21786;SDS011;11055;50.870;4.316;2023-02-28T12:30:49;3.10;;;2.38;;
21786;SDS011;11055;50.870;4.316;2023-02-28T12:33:24;3.45;;;2.85;;
21786;SDS011;11055;50.870;4.316;2023-02-28T12:35:58;3.22;;;2.15;;
21786;SDS011;11055;50.870;4.316;2023-02-28T12:38:27;4.45;;;2.60;;
21786;SDS011;11055;50.870;4.316;2023-02-28T12:41:05;2.95;;;2.65;;
21786;SDS011;11055;50.870;4.316;2023-02-28T12:44:09;2.95;;;2.50;;
21786;SDS011;11055;50.870;4.316;2023-02-28T12:46:58;3.97;;;2.15;;
21786;SDS011;11055;50.870;4.316;2023-02-28T12:49:41;2.92;;;2.53;;
21786;SDS011;11055;50.870;4.316;2023-02-28T12:52:14;2.70;;;2.47;;
21786;SDS011;11055;50.870;4.316;2023-02-28T12:54:56;2.72;;;2.53;;
21786;SDS011;11055;50.870;4.316;2023-02-28T13:00:43;2.55;;;2.33;;
21786;SDS011;11055;50.870;4.316;2023-02-28T13:03:51;4.25;;;2.90;;
21786;SDS011;11055;50.870;4.316;2023-02-28T13:09:15;3.58;;;2.45;;
21786;SDS011;11055;50.870;4.316;2023-02-28T13:11:46;2.40;;;2.00;;
21786;SDS011;11055;50.870;4.316;2023-02-28T13:14:24;3.67;;;2.75;;
21786;SDS011;11055;50.870;4.316;2023-02-28T13:17:12;4.43;;;2.95;;
21786;SDS011;11055;50.870;4.316;2023-02-28T13:27:47;3.25;;;2.15;;
21786;SDS011;11055;50.870;4.316;2023-02-28T13:51:50;2.35;;;2.15;;
21786;SDS011;11055;50.870;4.316;2023-02-28T14:09:02;4.68;;;2.55;;
21786;SDS011;11055;50.870;4.316;2023-02-28T14:11:41;3.15;;;2.35;;
21786;SDS011;11055;50.870;4.316;2023-02-28T14:14:08;4.47;;;2.35;;
21786;SDS011;11055;50.870;4.316;2023-02-28T14:16:54;4.18;;;2.40;;
21786;SDS011;11055;50.870;4.316;2023-02-28T14:19:26;3.60;;;2.42;;
21786;SDS011;11055;50.870;4.316;2023-02-28T14:24:42;3.40;;;2.30;;
21786;SDS011;11055;50.870;4.316;2023-02-28T14:35:20;3.90;;;2.25;;
21786;SDS011;11055;50.870;4.316;2023-02-28T14:38:07;3.60;;;2.75;;
21786;SDS011;11055;50.870;4.316;2023-02-28T14:40:46;2.83;;;2.50;;
21786;SDS011;11055;50.870;4.316;2023-02-28T14:43:21;4.93;;;2.30;;
21786;SDS011;11055;50.870;4.316;2023-02-28T14:45:54;3.45;;;2.13;;
21786;SDS011;11055;50.870;4.316;2023-02-28T14:48:22;2.42;;;2.08;;
21786;SDS011;11055;50.870;4.316;2023-02-28T14:50:50;3.05;;;2.10;;
21786;SDS011;11055;50.870;4.316;2023-02-28T14:53:19;3.40;;;2.67;;
21786;SDS011;11055;50.870;4.316;2023-02-28T14:55:47;5.07;;;2.50;;
21786;SDS011;11055;50.870;4.316;2023-02-28T15:00:49;4.63;;;2.42;;
21786;SDS011;11055;50.870;4.316;2023-02-28T15:03:19;5.90;;;2.72;;
21786;SDS011;11055;50.870;4.316;2023-02-28T15:06:05;4.32;;;2.20;;
21786;SDS011;11055;50.870;4.316;2023-02-28T15:08:43;3.35;;;2.58;;
21786;SDS011;11055;50.870;4.316;2023-02-28T15:11:16;3.05;;;2.75;;
21786;SDS011;11055;50.870;4.316;2023-02-28T15:13:50;3.20;;;2.60;;
21786;SDS011;11055;50.870;4.316;2023-02-28T15:16:20;4.55;;;3.00;;
21786;SDS011;11055;50.870;4.316;2023-02-28T15:18:49;3.42;;;2.92;;
21786;SDS011;11055;50.870;4.316;2023-02-28T15:21:24;6.28;;;2.78;;
21786;SDS011;11055;50.870;4.316;2023-02-28T15:23:54;3.40;;;3.10;;
21786;SDS011;11055;50.870;4.316;2023-02-28T15:26:39;3.83;;;2.90;;
21786;SDS011;11055;50.870;4.316;2023-02-28T15:29:11;4.78;;;4.38;;
21786;SDS011;11055;50.870;4.316;2023-02-28T15:31:41;3.80;;;3.17;;
21786;SDS011;11055;50.870;4.316;2023-02-28T15:34:17;4.25;;;3.10;;
21786;SDS011;11055;50.870;4.316;2023-02-28T15:36:48;7.43;;;2.60;;
21786;SDS011;11055;50.870;4.316;2023-02-28T15:39:21;5.68;;;3.22;;
21786;SDS011;11055;50.870;4.316;2023-02-28T15:41:49;4.05;;;3.28;;
21786;SDS011;11055;50.870;4.316;2023-02-28T15:44:26;4.28;;;2.72;;
21786;SDS011;11055;50.870;4.316;2023-02-28T15:47:12;3.53;;;2.90;;
21786;SDS011;11055;50.870;4.316;2023-02-28T15:49:49;3.85;;;2.90;;
21786;SDS011;11055;50.870;4.316;2023-02-28T15:52:24;5.45;;;4.18;;
21786;SDS011;11055;50.870;4.316;2023-02-28T15:54:51;3.33;;;2.75;;
21786;SDS011;11055;50.870;4.316;2023-02-28T15:57:18;5.05;;;2.60;;
21786;SDS011;11055;50.870;4.316;2023-02-28T15:59:51;4.18;;;2.78;;
21786;SDS011;11055;50.870;4.316;2023-02-28T16:07:33;10.02;;;3.05;;
21786;SDS011;11055;50.870;4.316;2023-02-28T16:10:03;4.22;;;3.30;;
21786;SDS011;11055;50.870;4.316;2023-02-28T16:12:30;3.55;;;2.70;;
21786;SDS011;11055;50.870;4.316;2023-02-28T16:14:59;7.75;;;3.30;;
21786;SDS011;11055;50.870;4.316;2023-02-28T16:17:31;3.20;;;2.38;;
21786;SDS011;11055;50.870;4.316;2023-02-28T16:19:59;4.40;;;2.92;;
21786;SDS011;11055;50.870;4.316;2023-02-28T16:22:25;4.03;;;2.83;;
21786;SDS011;11055;50.870;4.316;2023-02-28T16:24:51;5.53;;;2.88;;
21786;SDS011;11055;50.870;4.316;2023-02-28T16:27:28;4.43;;;3.08;;
21786;SDS011;11055;50.870;4.316;2023-02-28T16:32:23;7.07;;;2.88;;
21786;SDS011;11055;50.870;4.316;2023-02-28T16:34:49;6.05;;;3.35;;
21786;SDS011;11055;50.870;4.316;2023-02-28T16:37:16;4.20;;;2.67;;
21786;SDS011;11055;50.870;4.316;2023-02-28T16:39:43;6.10;;;4.30;;
21786;SDS011;11055;50.870;4.316;2023-02-28T16:42:18;7.38;;;3.80;;
21786;SDS011;11055;50.870;4.316;2023-02-28T16:44:48;7.18;;;4.20;;
21786;SDS011;11055;50.870;4.316;2023-02-28T16:47:14;5.78;;;4.05;;
21786;SDS011;11055;50.870;4.316;2023-02-28T16:49:40;4.45;;;3.15;;
21786;SDS011;11055;50.870;4.316;2023-02-28T16:52:08;4.82;;;3.47;;
21786;SDS011;11055;50.870;4.316;2023-02-28T16:54:39;2.90;;;2.65;;
21786;SDS011;11055;50.870;4.316;2023-02-28T16:57:06;4.00;;;3.28;;
21786;SDS011;11055;50.870;4.316;2023-02-28T16:59:43;4.65;;;3.30;;
21786;SDS011;11055;50.870;4.316;2023-02-28T17:02:18;3.78;;;3.35;;
21786;SDS011;11055;50.870;4.316;2023-02-28T17:04:44;6.78;;;5.00;;
21786;SDS011;11055;50.870;4.316;2023-02-28T17:07:11;6.60;;;3.20;;
21786;SDS011;11055;50.870;4.316;2023-02-28T17:09:38;4.18;;;3.33;;
21786;SDS011;11055;50.870;4.316;2023-02-28T17:12:05;6.18;;;3.72;;
21786;SDS011;11055;50.870;4.316;2023-02-28T17:14:31;5.05;;;3.58;;
21786;SDS011;11055;50.870;4.316;2023-02-28T17:16:57;3.75;;;3.25;;
21786;SDS011;11055;50.870;4.316;2023-02-28T17:19:22;3.55;;;2.85;;
21786;SDS011;11055;50.870;4.316;2023-02-28T17:21:48;7.70;;;3.20;;
21786;SDS011;11055;50.870;4.316;2023-02-28T17:24:14;6.82;;;3.80;;
21786;SDS011;11055;50.870;4.316;2023-02-28T17:26:40;10.07;;;3.88;;
21786;SDS011;11055;50.870;4.316;2023-02-28T17:29:16;10.98;;;5.15;;
21786;SDS011;11055;50.870;4.316;2023-02-28T17:31:44;5.53;;;4.10;;
21786;SDS011;11055;50.870;4.316;2023-02-28T17:34:10;6.72;;;3.28;;
21786;SDS011;11055;50.870;4.316;2023-02-28T17:36:36;8.07;;;4.10;;
21786;SDS011;11055;50.870;4.316;2023-02-28T17:39:03;7.25;;;3.70;;
21786;SDS011;11055;50.870;4.316;2023-02-28T17:41:31;8.25;;;4.03;;
21786;SDS011;11055;50.870;4.316;2023-02-28T17:43:57;5.53;;;3.17;;
21786;SDS011;11055;50.870;4.316;2023-02-28T17:46:23;10.15;;;4.93;;
21786;SDS011;11055;50.870;4.316;2023-02-28T17:48:50;7.03;;;3.88;;
21786;SDS011;11055;50.870;4.316;2023-02-28T17:51:18;5.22;;;3.92;;
21786;SDS011;11055;50.870;4.316;2023-02-28T17:53:45;4.70;;;3.30;;
21786;SDS011;11055;50.870;4.316;2023-02-28T17:56:12;4.38;;;3.50;;
21786;SDS011;11055;50.870;4.316;2023-02-28T17:58:43;4.88;;;3.88;;
21786;SDS011;11055;50.870;4.316;2023-02-28T18:01:09;7.43;;;4.70;;
21786;SDS011;11055;50.870;4.316;2023-02-28T18:03:36;12.60;;;6.32;;